Time;durP1;ratioP1;P1;durP2;ratioP2;P2;SDS_P1;SDS_P2;PMS_P1;PMS_P2;Temp;Humidity;BMP_temperature;BMP_pressure;BME280_temperature;BME280_humidity;BME280_pressure;Samples;Min_cycle;Max_cycle;Signal;HPM_P1;HPM_P2
2021/06/21 00:02:08;;;;;;;;;;;27.60;59.20;;;;;;5054331;28;19920;-54
2021/06/21 00:04:35;;;;;;;;;;;27.60;59.20;;;;;;5052979;28;19925;-53
2021/06/21 00:07:02;;;;;;;;;;;27.60;59.20;;;;;;5047199;28;20066;-52
2021/06/21 00:09:29;;;;;;;;;;;27.60;59.20;;;;;;5042380;28;19928;-52
2021/06/21 00:11:56;;;;;;;;;;;27.60;59.20;;;;;;5054414;28;19928;-56
2021/06/21 00:14:23;;;;;;;;;;;27.60;59.80;;;;;;5053073;28;19951;-54
2021/06/21 00:16:50;;;;;;;;;;;27.60;59.20;;;;;;5051136;28;19956;-55
2021/06/21 00:19:17;;;;;;;;;;;27.60;59.20;;;;;;5039437;28;19928;-54
2021/06/21 00:21:44;;;;;;;;;;;27.60;59.20;;;;;;5054139;28;19924;-54
2021/06/21 00:24:11;;;;;;;;;;;27.60;59.20;;;;;;5053549;28;19920;-54
2021/06/21 00:26:38;;;;;;;;;;;27.60;59.20;;;;;;5054445;28;19928;-52
2021/06/21 00:29:05;;;;;;;;;;;27.60;59.20;;;;;;5054206;28;19974;-52
2021/06/21 00:31:32;;;;;;;;;;;27.60;59.20;;;;;;5036417;28;20352;-54
2021/06/21 00:33:59;;;;;;;;;;;27.60;59.20;;;;;;5051453;28;19921;-54
2021/06/21 00:36:25;;;;;;;;;;;27.60;59.20;;;;;;5036583;28;19972;-57
2021/06/21 00:38:53;;;;;;;;;;;27.60;59.20;;;;;;5052484;28;19975;-53
2021/06/21 00:41:20;;;;;;;;;;;27.60;59.20;;;;;;5041062;28;19921;-54
2021/06/21 00:43:47;;;;;;;;;;;27.60;59.30;;;;;;5051666;28;19921;-57
2021/06/21 00:46:16;;;;;;;;;;;27.60;59.20;;;;;;5052712;28;19927;-56
2021/06/21 00:48:43;;;;;;;;;;;27.60;59.30;;;;;;5054531;28;19987;-53
2021/06/21 00:51:10;;;;;;;;;;;27.60;59.30;;;;;;5053290;28;19925;-51
2021/06/21 00:53:37;;;;;;;;;;;27.60;59.30;;;;;;5054261;28;19960;-55
2021/06/21 00:56:06;;;;;;;;;;;27.60;59.30;;;;;;5051414;28;20496;-54
2021/06/21 00:58:38;;;;;;;;;;;27.50;59.30;;;;;;5053278;28;19924;-55
2021/06/21 01:01:05;;;;;;;;;;;27.50;59.30;;;;;;5044679;28;19964;-58
2021/06/21 01:03:33;;;;;;;;;;;27.50;59.30;;;;;;5045287;28;19955;-53
2021/06/21 01:06:00;;;;;;;;;;;27.50;59.30;;;;;;5051793;28;19920;-55
2021/06/21 01:08:27;;;;;;;;;;;27.50;59.30;;;;;;5054028;28;19921;-57
2021/06/21 01:10:56;;;;;;;;;;;27.50;59.30;;;;;;5048566;28;19921;-54
2021/06/21 01:13:30;;;;;;;;;;;27.50;60.00;;;;;;5040595;28;19924;-54
2021/06/21 01:16:00;;;;;;;;;;;27.50;59.30;;;;;;5053899;28;19921;-52
2021/06/21 01:18:29;;;;;;;;;;;27.50;59.40;;;;;;5052618;28;19947;-55
2021/06/21 01:21:13;;;;;;;;;;;27.50;59.40;;;;;;5050103;28;20007;-53
2021/06/21 01:23:54;;;;;;;;;;;27.50;59.40;;;;;;5040537;28;19921;-56
2021/06/21 01:26:37;;;;;;;;;;;27.50;59.40;;;;;;5047955;28;19925;-54
2021/06/21 01:29:04;;;;;;;;;;;27.50;59.40;;;;;;5042535;28;19956;-54
2021/06/21 01:31:50;;;;;;;;;;;27.50;59.50;;;;;;5048531;28;20384;-54
2021/06/21 01:34:18;;;;;;;;;;;27.50;59.40;;;;;;5037331;28;20380;-52
2021/06/21 01:36:47;;;;;;;;;;;27.50;59.40;;;;;;5044556;28;19929;-54
2021/06/21 01:39:14;;;;;;;;;;;27.50;59.50;;;;;;5052375;28;19924;-56
2021/06/21 01:41:44;;;;;;;;;;;27.50;59.50;;;;;;5053593;28;19974;-56
2021/06/21 01:44:14;;;;;;;;;;;27.50;59.50;;;;;;5049787;28;20435;-56
2021/06/21 01:46:41;;;;;;;;;;;27.50;59.50;;;;;;5039457;28;20008;-53
2021/06/21 01:49:23;;;;;;;;;;;27.50;59.50;;;;;;5052467;28;19921;-53
2021/06/21 01:51:54;;;;;;;;;;;27.50;59.50;;;;;;5052633;28;19971;-56
2021/06/21 01:54:24;;;;;;;;;;;27.50;59.50;;;;;;5049365;28;20369;-55
2021/06/21 01:56:51;;;;;;;;;;;27.50;59.50;;;;;;5036263;28;19956;-55
2021/06/21 01:59:18;;;;;;;;;;;27.50;59.50;;;;;;5035949;28;19920;-54
2021/06/21 02:01:46;;;;;;;;;;;27.50;59.50;;;;;;5051855;28;19921;-56
2021/06/21 02:04:14;;;;;;;;;;;27.50;59.50;;;;;;5035511;28;19974;-52
2021/06/21 02:06:41;;;;;;;;;;;27.50;59.60;;;;;;5034860;28;19921;-52
2021/06/21 02:09:09;;;;;;;;;;;27.50;59.60;;;;;;5051645;28;19921;-57
2021/06/21 02:11:36;;;;;;;;;;;27.50;59.60;;;;;;5053437;28;19921;-55
2021/06/21 02:14:04;;;;;;;;;;;27.50;59.60;;;;;;5053765;28;20015;-56
2021/06/21 02:16:32;;;;;;;;;;;27.50;59.60;;;;;;5036217;28;20385;-55
2021/06/21 02:18:59;;;;;;;;;;;27.40;59.60;;;;;;5051180;28;19967;-53
2021/06/21 02:21:26;;;;;;;;;;;27.50;59.60;;;;;;5052043;28;19960;-52
2021/06/21 02:23:54;;;;;;;;;;;27.40;59.60;;;;;;5052386;28;20269;-55
2021/06/21 02:26:23;;;;;;;;;;;27.50;59.60;;;;;;5052250;28;19971;-54
2021/06/21 02:28:52;;;;;;;;;;;27.50;59.70;;;;;;5040829;28;19971;-52
2021/06/21 02:31:20;;;;;;;;;;;27.50;59.70;;;;;;5036641;28;19932;-53
2021/06/21 02:33:48;;;;;;;;;;;27.50;59.70;;;;;;5035528;28;20008;-53
2021/06/21 02:36:15;;;;;;;;;;;27.50;59.70;;;;;;5045627;28;19925;-53
2021/06/21 02:38:42;;;;;;;;;;;27.50;59.70;;;;;;5051864;28;20348;-55
2021/06/21 02:41:09;;;;;;;;;;;27.50;59.70;;;;;;5052172;28;19999;-56
2021/06/21 02:43:36;;;;;;;;;;;27.50;59.70;;;;;;5045338;28;19928;-52
2021/06/21 02:46:03;;;;;;;;;;;27.40;59.60;;;;;;5046879;28;20332;-55
2021/06/21 02:48:30;;;;;;;;;;;27.40;59.60;;;;;;5063468;28;19920;-54
2021/06/21 02:50:58;;;;;;;;;;;27.50;59.70;;;;;;5051742;28;20341;-52
2021/06/21 02:53:44;;;;;;;;;;;27.50;59.70;;;;;;5051654;28;19921;-56
2021/06/21 02:56:20;;;;;;;;;;;27.40;59.60;;;;;;5046897;28;20450;-55
2021/06/21 02:58:48;;;;;;;;;;;27.50;59.70;;;;;;5040317;28;20368;-55
2021/06/21 03:01:16;;;;;;;;;;;27.50;59.70;;;;;;5056312;28;19924;-54
2021/06/21 03:03:51;;;;;;;;;;;27.50;59.70;;;;;;5052107;28;19921;-51
2021/06/21 03:06:18;;;;;;;;;;;27.50;59.70;;;;;;5041115;28;19947;-55
2021/06/21 03:08:45;;;;;;;;;;;27.50;59.70;;;;;;5039110;28;19956;-56
2021/06/21 03:11:16;;;;;;;;;;;27.50;59.70;;;;;;5039113;28;19929;-56
2021/06/21 03:13:53;;;;;;;;;;;27.50;59.70;;;;;;5040959;28;19920;-53
2021/06/21 03:16:20;;;;;;;;;;;27.50;59.70;;;;;;5039891;28;19963;-53
2021/06/21 03:18:47;;;;;;;;;;;27.50;59.70;;;;;;5040317;28;20010;-52
2021/06/21 03:21:18;;;;;;;;;;;27.50;59.70;;;;;;5055280;28;19971;-53
2021/06/21 03:23:49;;;;;;;;;;;27.50;59.70;;;;;;5039190;28;19928;-51
2021/06/21 03:26:16;;;;;;;;;;;27.40;59.60;;;;;;5037418;28;19924;-56
2021/06/21 03:28:43;;;;;;;;;;;27.50;59.70;;;;;;5054863;28;20003;-52
2021/06/21 03:31:10;;;;;;;;;;;27.50;59.70;;;;;;5054408;28;19950;-51
2021/06/21 03:33:37;;;;;;;;;;;27.50;59.70;;;;;;5056353;28;19921;-53
2021/06/21 03:36:05;;;;;;;;;;;27.50;59.70;;;;;;5053958;28;19970;-53
2021/06/21 03:38:32;;;;;;;;;;;27.50;59.70;;;;;;5053687;28;19921;-53
2021/06/21 03:41:00;;;;;;;;;;;27.50;59.70;;;;;;5041724;28;20328;-52
2021/06/21 03:43:28;;;;;;;;;;;27.50;59.70;;;;;;5064422;28;19920;-53
2021/06/21 03:45:57;;;;;;;;;;;27.50;59.70;;;;;;5056177;28;19924;-52
2021/06/21 03:48:46;;;;;;;;;;;27.50;59.70;;;;;;5054300;28;19925;-53
2021/06/21 03:51:13;;;;;;;;;;;27.50;59.60;;;;;;5040043;28;20382;-52
2021/06/21 03:53:40;;;;;;;;;;;27.50;59.60;;;;;;5051525;28;19951;-53
2021/06/21 03:56:07;;;;;;;;;;;27.60;59.60;;;;;;5043129;28;19921;-56
2021/06/21 03:58:34;;;;;;;;;;;27.60;59.60;;;;;;5049005;28;19992;-54
2021/06/21 04:01:02;;;;;;;;;;;27.60;59.60;;;;;;5043742;28;20004;-55
2021/06/21 04:03:29;;;;;;;;;;;27.60;59.60;;;;;;5047685;28;19924;-50
2021/06/21 04:05:57;;;;;;;;;;;27.60;59.50;;;;;;5054034;28;20012;-53
2021/06/21 04:08:25;;;;;;;;;;;27.60;59.50;;;;;;5055178;28;20402;-52
2021/06/21 04:10:52;;;;;;;;;;;27.70;59.50;;;;;;5052904;28;19920;-51
2021/06/21 04:13:19;;;;;;;;;;;27.70;59.50;;;;;;5047953;28;20004;-52
2021/06/21 04:15:46;;;;;;;;;;;27.70;59.40;;;;;;5042602;28;20289;-51
2021/06/21 04:18:15;;;;;;;;;;;27.70;59.40;;;;;;5052135;28;19921;-55
2021/06/21 04:20:43;;;;;;;;;;;27.70;59.40;;;;;;5043163;28;19920;-52
2021/06/21 04:23:10;;;;;;;;;;;27.70;59.40;;;;;;5052434;28;19972;-56
2021/06/21 04:25:38;;;;;;;;;;;27.70;59.30;;;;;;5040475;28;19999;-53
2021/06/21 04:28:05;;;;;;;;;;;27.80;59.30;;;;;;5053339;28;19936;-52
2021/06/21 04:30:33;;;;;;;;;;;27.80;59.30;;;;;;5055025;28;19924;-52
2021/06/21 04:33:00;;;;;;;;;;;27.80;59.20;;;;;;5036334;28;19968;-57
2021/06/21 04:35:28;;;;;;;;;;;27.80;59.20;;;;;;5068899;28;19971;-56
2021/06/21 04:37:55;;;;;;;;;;;27.90;59.20;;;;;;5036124;28;20159;-56
2021/06/21 04:40:25;;;;;;;;;;;27.90;59.20;;;;;;5036305;28;19921;-56
2021/06/21 04:42:52;;;;;;;;;;;27.90;59.10;;;;;;5053078;28;20288;-51
2021/06/21 04:45:19;;;;;;;;;;;27.90;59.00;;;;;;5051544;28;19927;-55
2021/06/21 04:47:47;;;;;;;;;;;27.90;59.00;;;;;;5052633;28;19928;-56
2021/06/21 04:50:16;;;;;;;;;;;28.00;59.00;;;;;;5053404;28;19947;-53
2021/06/21 04:52:45;;;;;;;;;;;28.00;58.90;;;;;;5040193;28;20412;-54
2021/06/21 04:55:13;;;;;;;;;;;28.00;58.80;;;;;;5049417;28;19956;-55
2021/06/21 04:57:41;;;;;;;;;;;28.00;58.70;;;;;;5042522;28;19921;-52
2021/06/21 05:00:11;;;;;;;;;;;28.00;58.70;;;;;;5048880;28;19970;-55
2021/06/21 05:02:39;;;;;;;;;;;28.10;59.30;;;;;;5043907;28;19968;-55
2021/06/21 05:05:07;;;;;;;;;;;28.10;58.60;;;;;;5046212;28;19928;-55
2021/06/21 05:07:34;;;;;;;;;;;28.10;58.60;;;;;;5054219;28;19921;-54
2021/06/21 05:10:03;;;;;;;;;;;28.10;58.50;;;;;;5046099;28;19982;-54
2021/06/21 05:12:31;;;;;;;;;;;28.20;58.50;;;;;;5044838;28;19921;-54
2021/06/21 05:14:58;;;;;;;;;;;28.20;58.50;;;;;;5051791;28;19936;-52
2021/06/21 05:17:26;;;;;;;;;;;28.20;58.40;;;;;;5048709;28;20008;-57
2021/06/21 05:19:52;;;;;;;;;;;28.20;58.30;;;;;;5039884;28;19971;-53
2021/06/21 05:22:19;;;;;;;;;;;28.20;58.30;;;;;;5052131;28;20000;-52
2021/06/21 05:24:46;;;;;;;;;;;28.30;58.20;;;;;;5050581;28;19920;-56
2021/06/21 05:27:14;;;;;;;;;;;28.30;58.10;;;;;;5037164;28;20361;-56
2021/06/21 05:29:40;;;;;;;;;;;28.30;58.10;;;;;;5038448;28;19976;-54
2021/06/21 05:32:07;;;;;;;;;;;28.30;58.10;;;;;;5054309;28;20261;-55
2021/06/21 05:34:35;;;;;;;;;;;28.30;58.00;;;;;;5054066;28;20015;-56
2021/06/21 05:37:02;;;;;;;;;;;28.40;58.00;;;;;;5053766;28;20388;-54
2021/06/21 05:39:29;;;;;;;;;;;28.40;57.90;;;;;;5057484;28;19921;-55
2021/06/21 05:41:56;;;;;;;;;;;28.40;57.80;;;;;;5038747;28;20424;-54
2021/06/21 05:44:23;;;;;;;;;;;28.40;57.80;;;;;;5051695;28;20289;-55
2021/06/21 05:46:50;;;;;;;;;;;28.40;57.70;;;;;;5054510;28;19921;-53
2021/06/21 05:49:17;;;;;;;;;;;28.50;57.70;;;;;;5052157;28;20003;-54
2021/06/21 05:51:44;;;;;;;;;;;28.50;57.70;;;;;;5039514;28;19921;-53
2021/06/21 05:54:11;;;;;;;;;;;28.50;57.60;;;;;;5048164;28;19920;-55
2021/06/21 05:56:39;;;;;;;;;;;28.50;57.50;;;;;;5053700;28;20327;-55
2021/06/21 05:59:06;;;;;;;;;;;28.50;57.60;;;;;;5051174;28;19925;-56
2021/06/21 06:01:34;;;;;;;;;;;28.50;57.60;;;;;;5050830;28;20078;-54
2021/06/21 06:04:01;;;;;;;;;;;28.50;57.50;;;;;;5044674;28;20023;-55
2021/06/21 06:06:28;;;;;;;;;;;28.60;57.60;;;;;;5036256;28;20020;-56
2021/06/21 06:08:55;;;;;;;;;;;28.60;57.50;;;;;;5042633;28;20387;-55
2021/06/21 06:11:23;;;;;;;;;;;28.60;57.40;;;;;;5053586;28;20423;-54
2021/06/21 06:13:50;;;;;;;;;;;28.60;58.00;;;;;;5052186;28;19927;-53
2021/06/21 06:16:17;;;;;;;;;;;28.60;57.30;;;;;;5052373;28;19974;-54
2021/06/21 06:18:44;;;;;;;;;;;28.60;57.30;;;;;;5052089;28;19921;-55
2021/06/21 06:21:12;;;;;;;;;;;28.60;57.30;;;;;;5052005;28;20350;-56
2021/06/21 06:23:40;;;;;;;;;;;28.60;57.30;;;;;;5049826;28;20002;-52
2021/06/21 06:26:07;;;;;;;;;;;28.60;57.30;;;;;;5037756;28;19920;-53
2021/06/21 06:28:37;;;;;;;;;;;28.60;57.20;;;;;;5050385;28;19987;-55
2021/06/21 06:31:05;;;;;;;;;;;28.60;57.20;;;;;;5034829;28;19967;-55
2021/06/21 06:33:32;;;;;;;;;;;28.60;57.20;;;;;;5052356;28;20020;-54
2021/06/21 06:35:59;;;;;;;;;;;28.60;57.20;;;;;;5038754;28;19952;-51
2021/06/21 06:38:26;;;;;;;;;;;28.60;57.20;;;;;;5039814;28;19979;-56
2021/06/21 06:40:53;;;;;;;;;;;28.60;57.10;;;;;;5070878;28;19924;-53
2021/06/21 06:43:20;;;;;;;;;;;28.60;57.10;;;;;;5055839;28;20027;-56
2021/06/21 06:45:47;;;;;;;;;;;28.60;57.10;;;;;;5056359;28;20427;-57
2021/06/21 06:48:14;;;;;;;;;;;28.60;57.10;;;;;;5055469;28;19928;-56
2021/06/21 06:50:41;;;;;;;;;;;28.60;57.00;;;;;;5044585;28;20315;-55
2021/06/21 06:53:08;;;;;;;;;;;28.60;57.00;;;;;;5050872;28;20091;-56
2021/06/21 06:58:22;;;;;;;;;;;28.60;57.00;;;;;;5044196;28;20427;-52
2021/06/21 07:00:52;;;;;;;;;;;28.70;57.00;;;;;;5039511;28;19953;-52
2021/06/21 07:03:19;;;;;;;;;;;28.70;57.00;;;;;;5040124;28;19925;-54
2021/06/21 07:05:46;;;;;;;;;;;28.70;57.00;;;;;;5047693;28;20296;-57
2021/06/21 07:08:13;;;;;;;;;;;28.70;56.90;;;;;;5055326;28;19920;-56
2021/06/21 07:10:40;;;;;;;;;;;28.70;56.90;;;;;;5055527;28;19924;-54
2021/06/21 07:13:07;;;;;;;;;;;28.70;56.90;;;;;;5048351;28;20321;-55
2021/06/21 07:15:37;;;;;;;;;;;28.70;56.80;;;;;;5039230;28;19921;-54
2021/06/21 07:18:04;;;;;;;;;;;28.70;56.80;;;;;;5044094;28;19956;-57
2021/06/21 07:20:31;;;;;;;;;;;28.70;56.80;;;;;;5054829;28;19967;-54
2021/06/21 07:22:58;;;;;;;;;;;28.70;56.80;;;;;;5055184;28;20003;-53
2021/06/21 07:25:25;;;;;;;;;;;28.70;56.80;;;;;;5054790;28;19959;-56
2021/06/21 07:27:52;;;;;;;;;;;28.70;56.80;;;;;;5052911;28;21176;-54
2021/06/21 07:30:19;;;;;;;;;;;28.80;56.80;;;;;;5038549;28;20011;-55
2021/06/21 07:32:47;;;;;;;;;;;28.80;56.80;;;;;;5038370;28;19997;-54
2021/06/21 07:35:14;;;;;;;;;;;28.70;56.70;;;;;;5037909;28;19921;-57
2021/06/21 07:37:41;;;;;;;;;;;28.80;56.80;;;;;;5038073;28;19921;-57
2021/06/21 07:40:09;;;;;;;;;;;28.70;56.80;;;;;;5055422;28;19921;-57
2021/06/21 07:42:36;;;;;;;;;;;28.80;56.70;;;;;;5038446;28;19925;-57
2021/06/21 07:45:04;;;;;;;;;;;28.80;56.70;;;;;;5055333;28;19960;-54
2021/06/21 07:47:31;;;;;;;;;;;28.80;56.70;;;;;;5041485;28;19921;-55
2021/06/21 07:49:58;;;;;;;;;;;28.80;56.60;;;;;;5039299;28;19925;-55
2021/06/21 07:52:26;;;;;;;;;;;28.80;56.60;;;;;;5065773;28;20316;-56
2021/06/21 07:54:58;;;;;;;;;;;28.80;56.60;;;;;;5057274;28;19932;-55
2021/06/21 07:57:27;;;;;;;;;;;28.80;56.70;;;;;;5053665;28;19971;-56
2021/06/21 07:59:55;;;;;;;;;;;28.80;56.70;;;;;;5044487;28;19920;-56
2021/06/21 08:02:22;;;;;;;;;;;28.80;56.70;;;;;;5066384;28;19920;-56
2021/06/21 08:04:50;;;;;;;;;;;28.80;56.70;;;;;;5062663;28;20387;-54
2021/06/21 08:07:17;;;;;;;;;;;28.80;56.70;;;;;;5053991;28;20019;-55
2021/06/21 08:09:44;;;;;;;;;;;28.80;56.80;;;;;;5045572;28;19955;-55
2021/06/21 08:12:12;;;;;;;;;;;28.80;56.80;;;;;;5046106;28;19921;-55
2021/06/21 08:14:41;;;;;;;;;;;28.80;56.80;;;;;;5054092;28;19924;-55
2021/06/21 08:17:09;;;;;;;;;;;28.80;56.90;;;;;;5053871;28;20407;-54
2021/06/21 08:19:36;;;;;;;;;;;28.80;56.90;;;;;;5055045;28;19955;-57
2021/06/21 08:22:03;;;;;;;;;;;28.80;56.90;;;;;;5055227;28;19948;-56
2021/06/21 08:24:31;;;;;;;;;;;28.80;56.90;;;;;;5053688;28;19920;-52
2021/06/21 08:27:01;;;;;;;;;;;28.70;56.90;;;;;;5052546;28;19964;-57
2021/06/21 08:29:29;;;;;;;;;;;28.70;56.90;;;;;;5053749;28;19975;-53
2021/06/21 08:31:56;;;;;;;;;;;28.70;57.00;;;;;;5055058;28;20007;-55
2021/06/21 08:34:23;;;;;;;;;;;28.70;57.00;;;;;;5054834;28;19921;-57
2021/06/21 08:36:50;;;;;;;;;;;28.70;57.00;;;;;;5037357;28;19987;-55
2021/06/21 08:39:17;;;;;;;;;;;28.70;57.00;;;;;;5053967;28;19927;-55
2021/06/21 08:41:44;;;;;;;;;;;28.70;57.10;;;;;;5053899;28;19960;-55
2021/06/21 08:44:17;;;;;;;;;;;28.70;57.10;;;;;;5052426;28;20369;-54
2021/06/21 08:46:46;;;;;;;;;;;28.70;57.10;;;;;;5037668;28;19986;-58
2021/06/21 08:49:13;;;;;;;;;;;28.70;57.10;;;;;;5054596;28;19992;-55
2021/06/21 08:51:41;;;;;;;;;;;28.70;57.10;;;;;;5037784;28;19967;-55
2021/06/21 08:54:07;;;;;;;;;;;28.70;57.10;;;;;;5052843;28;19960;-56
2021/06/21 08:56:35;;;;;;;;;;;28.70;57.10;;;;;;5053283;28;19921;-57
2021/06/21 08:59:06;;;;;;;;;;;28.70;57.10;;;;;;5041369;28;20362;-55
2021/06/21 09:01:37;;;;;;;;;;;28.70;57.20;;;;;;5037352;28;20439;-57
2021/06/21 09:04:05;;;;;;;;;;;28.70;57.20;;;;;;5049697;28;19952;-57
2021/06/21 09:06:37;;;;;;;;;;;28.70;57.20;;;;;;5052055;28;20406;-53
2021/06/21 09:09:05;;;;;;;;;;;28.70;57.20;;;;;;5051703;28;19921;-55
2021/06/21 09:11:50;;;;;;;;;;;28.70;57.20;;;;;;5044008;28;20341;-56
2021/06/21 09:14:26;;;;;;;;;;;28.70;57.20;;;;;;5051160;28;19924;-56
2021/06/21 09:16:54;;;;;;;;;;;28.70;57.30;;;;;;5056523;28;19921;-53
2021/06/21 09:19:22;;;;;;;;;;;28.70;57.20;;;;;;5053064;28;19921;-53
2021/06/21 09:21:50;;;;;;;;;;;28.70;57.30;;;;;;5042955;28;19957;-56
2021/06/21 09:24:19;;;;;;;;;;;28.70;57.30;;;;;;5037679;28;19924;-57
2021/06/21 09:26:47;;;;;;;;;;;28.70;57.30;;;;;;5046146;28;19925;-52
2021/06/21 09:29:15;;;;;;;;;;;28.70;57.30;;;;;;5046243;28;20000;-57
2021/06/21 09:31:47;;;;;;;;;;;28.70;57.30;;;;;;5044618;28;19920;-56
2021/06/21 09:34:15;;;;;;;;;;;28.70;57.30;;;;;;5046213;28;19983;-54
2021/06/21 09:36:42;;;;;;;;;;;28.70;57.30;;;;;;5039504;28;19928;-56
2021/06/21 09:39:18;;;;;;;;;;;28.70;57.30;;;;;;5057541;28;19967;-57
2021/06/21 09:42:04;;;;;;;;;;;28.80;57.40;;;;;;5059050;28;20435;-57
2021/06/21 09:44:33;;;;;;;;;;;28.70;57.40;;;;;;5035767;28;19921;-57
2021/06/21 09:47:29;;;;;;;;;;;28.70;57.30;;;;;;5043283;28;19976;-54
2021/06/21 09:50:02;;;;;;;;;;;28.70;57.40;;;;;;5052239;28;19968;-50
2021/06/21 09:52:35;;;;;;;;;;;28.70;57.40;;;;;;5058832;28;19928;-55
2021/06/21 09:55:20;;;;;;;;;;;28.70;57.40;;;;;;5044740;28;20000;-55
2021/06/21 09:57:49;;;;;;;;;;;28.70;57.40;;;;;;5052121;28;19939;-52
2021/06/21 10:00:17;;;;;;;;;;;28.70;58.00;;;;;;5042744;28;19987;-51
2021/06/21 10:02:44;;;;;;;;;;;28.70;57.40;;;;;;5035864;28;20011;-55
2021/06/21 10:05:20;;;;;;;;;;;28.70;57.40;;;;;;5036132;28;19968;-50
2021/06/21 10:07:47;;;;;;;;;;;28.70;57.40;;;;;;5043915;28;20398;-54
2021/06/21 10:10:17;;;;;;;;;;;28.70;57.40;;;;;;5056370;28;19921;-56
2021/06/21 10:12:46;;;;;;;;;;;28.70;57.40;;;;;;5049639;28;19925;-55
2021/06/21 10:15:13;;;;;;;;;;;28.70;57.40;;;;;;5045613;28;20380;-56
2021/06/21 10:17:41;;;;;;;;;;;28.70;57.40;;;;;;5051471;28;19971;-54
2021/06/21 10:20:09;;;;;;;;;;;28.70;57.40;;;;;;5045083;28;20003;-54
2021/06/21 10:22:38;;;;;;;;;;;28.70;57.40;;;;;;5056964;28;19924;-55
2021/06/21 10:25:06;;;;;;;;;;;28.70;57.40;;;;;;5055326;28;19968;-53
2021/06/21 10:27:34;;;;;;;;;;;28.70;57.40;;;;;;5043133;28;20079;-55
2021/06/21 10:30:01;;;;;;;;;;;28.70;57.40;;;;;;5055917;28;20433;-55
2021/06/21 10:32:29;;;;;;;;;;;28.70;57.40;;;;;;5041019;28;19976;-56
2021/06/21 10:34:56;;;;;;;;;;;28.70;57.40;;;;;;5054951;28;19935;-55
2021/06/21 10:37:25;;;;;;;;;;;28.70;57.40;;;;;;5055849;28;19967;-54
2021/06/21 10:39:58;;;;;;;;;;;28.70;57.40;;;;;;5037697;28;19920;-55
2021/06/21 10:42:26;;;;;;;;;;;28.70;57.40;;;;;;5038059;28;19975;-54
2021/06/21 10:44:56;;;;;;;;;;;28.70;57.40;;;;;;5054363;28;19974;-55
2021/06/21 10:47:26;;;;;;;;;;;28.70;57.40;;;;;;5055725;28;19921;-57
2021/06/21 10:50:07;;;;;;;;;;;28.70;57.40;;;;;;5055774;28;19970;-54
2021/06/21 10:52:47;;;;;;;;;;;28.70;57.40;;;;;;5055517;28;19925;-57
2021/06/21 10:55:20;;;;;;;;;;;28.70;57.40;;;;;;5056751;28;19967;-58
2021/06/21 10:57:50;;;;;;;;;;;28.70;57.40;;;;;;5054213;28;20003;-57
2021/06/21 11:00:19;;;;;;;;;;;28.70;57.30;;;;;;5037321;28;19956;-58
2021/06/21 11:02:47;;;;;;;;;;;28.70;57.30;;;;;;5055726;28;20407;-56
2021/06/21 11:05:34;;;;;;;;;;;28.70;57.30;;;;;;5054009;28;19921;-57
2021/06/21 11:08:18;;;;;;;;;;;28.70;57.30;;;;;;5055270;28;19921;-55
2021/06/21 11:10:46;;;;;;;;;;;28.80;57.40;;;;;;5054694;28;20000;-57
2021/06/21 11:13:32;;;;;;;;;;;28.70;57.30;;;;;;5037570;28;20369;-56
2021/06/21 11:16:20;;;;;;;;;;;28.70;57.30;;;;;;5039545;28;19932;-54
2021/06/21 11:18:56;;;;;;;;;;;28.80;57.30;;;;;;5039617;28;19920;-54
2021/06/21 11:21:23;;;;;;;;;;;28.80;57.30;;;;;;5055948;28;20325;-55
2021/06/21 11:23:52;;;;;;;;;;;28.70;57.20;;;;;;5054325;28;19975;-55
2021/06/21 11:26:19;;;;;;;;;;;28.80;57.30;;;;;;5055821;28;20018;-55
2021/06/21 11:28:47;;;;;;;;;;;28.80;57.30;;;;;;5054873;28;19920;-55
2021/06/21 11:31:20;;;;;;;;;;;28.80;57.30;;;;;;5054384;28;20007;-57
2021/06/21 11:33:49;;;;;;;;;;;28.80;57.30;;;;;;5055022;28;19920;-56
2021/06/21 11:36:34;;;;;;;;;;;28.70;57.20;;;;;;5053741;28;19995;-56
2021/06/21 11:39:22;;;;;;;;;;;28.80;57.30;;;;;;5054560;28;19921;-55
2021/06/21 11:41:51;;;;;;;;;;;28.80;57.20;;;;;;5053754;28;19944;-57
2021/06/21 11:44:36;;;;;;;;;;;28.80;57.20;;;;;;5037606;28;20019;-56
2021/06/21 11:47:20;;;;;;;;;;;28.80;57.20;;;;;;5038431;28;19990;-55
2021/06/21 11:49:48;;;;;;;;;;;28.80;57.20;;;;;;5038956;28;19971;-56
2021/06/21 11:52:17;;;;;;;;;;;28.80;57.20;;;;;;5038042;28;20012;-55
2021/06/21 11:54:45;;;;;;;;;;;28.70;57.10;;;;;;5039610;28;19920;-55
2021/06/21 11:57:13;;;;;;;;;;;28.80;57.20;;;;;;5054399;28;20334;-55
2021/06/21 11:59:40;;;;;;;;;;;28.80;57.20;;;;;;5055450;28;19921;-56
2021/06/21 12:02:11;;;;;;;;;;;28.80;57.10;;;;;;5054343;28;19956;-55
2021/06/21 12:04:39;;;;;;;;;;;28.80;57.10;;;;;;5036854;28;19928;-53
2021/06/21 12:07:07;;;;;;;;;;;28.80;57.10;;;;;;5036757;28;19921;-55
2021/06/21 12:09:38;;;;;;;;;;;28.80;57.10;;;;;;5037810;28;20003;-56
2021/06/21 12:12:06;;;;;;;;;;;28.80;57.10;;;;;;5037476;28;19960;-53
2021/06/21 12:14:33;;;;;;;;;;;28.80;57.10;;;;;;5039044;28;19949;-54
2021/06/21 12:17:02;;;;;;;;;;;28.80;57.10;;;;;;5055083;28;19931;-55
2021/06/21 12:19:29;;;;;;;;;;;28.80;57.10;;;;;;5054429;28;19928;-56
2021/06/21 12:21:57;;;;;;;;;;;28.80;57.10;;;;;;5053902;28;19959;-56
2021/06/21 12:24:24;;;;;;;;;;;28.80;57.00;;;;;;5054020;28;19959;-57
2021/06/21 12:26:56;;;;;;;;;;;28.80;57.10;;;;;;5053973;28;20023;-53
2021/06/21 12:29:22;;;;;;;;;;;28.80;57.00;;;;;;5053441;28;20428;-58
2021/06/21 12:31:54;;;;;;;;;;;28.80;57.00;;;;;;5053670;28;19920;-56
2021/06/21 12:34:40;;;;;;;;;;;28.80;57.00;;;;;;5053941;28;19967;-55
2021/06/21 12:37:15;;;;;;;;;;;28.80;57.00;;;;;;5041693;28;20008;-56
2021/06/21 12:39:43;;;;;;;;;;;28.80;57.00;;;;;;5037194;28;19961;-54
2021/06/21 12:42:11;;;;;;;;;;;28.80;57.00;;;;;;5037205;28;19925;-57
2021/06/21 12:44:39;;;;;;;;;;;28.80;57.00;;;;;;5046839;28;19921;-57
2021/06/21 12:47:17;;;;;;;;;;;28.80;57.00;;;;;;5052487;28;20331;-56
2021/06/21 12:49:44;;;;;;;;;;;28.80;57.00;;;;;;5043236;28;20043;-56
2021/06/21 12:52:11;;;;;;;;;;;28.80;57.00;;;;;;5036831;28;19924;-56
2021/06/21 12:54:46;;;;;;;;;;;28.80;57.00;;;;;;5181434;27;20394;-54
2021/06/21 12:57:13;;;;;;;;;;;28.80;56.90;;;;;;5170957;27;20010;-54
2021/06/21 12:59:42;;;;;;;;;;;28.80;56.90;;;;;;5168832;27;19949;-55
2021/06/21 13:02:25;;;;;;;;;;;28.80;56.90;;;;;;5169715;27;19978;-56
2021/06/21 13:04:56;;;;;;;;;;;28.80;56.90;;;;;;5169910;27;19923;-55
2021/06/21 13:07:24;;;;;;;;;;;28.80;56.90;;;;;;5170167;27;20334;-55
2021/06/21 13:09:55;;;;;;;;;;;28.80;56.90;;;;;;5169770;27;19923;-54
2021/06/21 13:12:27;;;;;;;;;;;28.80;56.90;;;;;;5168308;27;19930;-55
2021/06/21 13:15:03;;;;;;;;;;;28.80;56.90;;;;;;5164470;27;19968;-54
2021/06/21 13:17:30;;;;;;;;;;;28.80;56.90;;;;;;5158756;27;20018;-56
2021/06/21 13:19:59;;;;;;;;;;;28.80;56.90;;;;;;5169549;27;19927;-55
2021/06/21 13:22:31;;;;;;;;;;;28.80;56.90;;;;;;5165747;27;19930;-55
2021/06/21 13:24:59;;;;;;;;;;;28.80;56.90;;;;;;5156970;27;19927;-50
2021/06/21 13:27:30;;;;;;;;;;;28.80;56.90;;;;;;5170852;27;19990;-53
2021/06/21 13:29:59;;;;;;;;;;;28.80;56.90;;;;;;5165941;27;20354;-56
2021/06/21 13:32:27;;;;;;;;;;;28.80;56.90;;;;;;5156113;27;19927;-56
2021/06/21 13:34:55;;;;;;;;;;;28.80;56.90;;;;;;5169639;27;20010;-55
2021/06/21 13:37:22;;;;;;;;;;;28.80;56.90;;;;;;5170703;27;20281;-55
2021/06/21 13:40:19;;;;;;;;;;;28.80;56.90;;;;;;5170592;27;19954;-54
2021/06/21 13:42:52;;;;;;;;;;;28.80;56.90;;;;;;5135818;27;19927;-55
2021/06/21 13:45:28;;;;;;;;;;;28.80;56.90;;;;;;5163208;27;19930;-55
2021/06/21 13:47:56;;;;;;;;;;;28.80;56.90;;;;;;5168920;27;19923;-54
2021/06/21 13:50:31;;;;;;;;;;;28.80;56.90;;;;;;5168546;27;19923;-55
2021/06/21 13:52:58;;;;;;;;;;;28.80;56.90;;;;;;5168674;27;19927;-53
2021/06/21 13:55:37;;;;;;;;;;;28.80;56.90;;;;;;5168991;27;19998;-55
2021/06/21 13:58:04;;;;;;;;;;;28.80;56.90;;;;;;5167653;27;19977;-56
2021/06/21 14:00:38;;;;;;;;;;;28.80;56.90;;;;;;5168806;27;19988;-55
2021/06/21 14:03:21;;;;;;;;;;;28.80;56.90;;;;;;5168581;27;19923;-54
2021/06/21 14:05:49;;;;;;;;;;;28.80;56.90;;;;;;5157833;27;19928;-55
2021/06/21 14:08:16;;;;;;;;;;;28.80;56.80;;;;;;5157302;27;19923;-52
2021/06/21 14:10:43;;;;;;;;;;;28.80;56.80;;;;;;5155267;27;19999;-54
2021/06/21 14:13:10;;;;;;;;;;;28.80;56.80;;;;;;5138051;27;20285;-57
2021/06/21 14:15:37;;;;;;;;;;;28.80;56.90;;;;;;5137833;27;19924;-56
2021/06/21 14:18:04;;;;;;;;;;;28.80;56.80;;;;;;5154515;27;19966;-56
2021/06/21 14:20:31;;;;;;;;;;;28.80;56.80;;;;;;5154487;27;20352;-51
2021/06/21 14:22:58;;;;;;;;;;;28.80;56.80;;;;;;5155075;27;20060;-55
2021/06/21 14:25:25;;;;;;;;;;;28.80;56.80;;;;;;5140305;27;20026;-54
2021/06/21 14:27:52;;;;;;;;;;;28.80;56.80;;;;;;5140188;27;19972;-54
2021/06/21 14:30:20;;;;;;;;;;;28.80;57.40;;;;;;5152069;27;20275;-52
2021/06/21 14:32:48;;;;;;;;;;;28.80;56.80;;;;;;5155662;27;19927;-52